sensor_id;sensor_type;location;lat;lon;timestamp;temperature;humidity
46816;DHT22;32787;53.316;8.670;2022-09-09T00:02:25;13.70;93.80
46816;DHT22;32787;53.316;8.670;2022-09-09T00:15:27;13.80;93.80
46816;DHT22;32787;53.316;8.670;2022-09-09T00:18:15;13.70;93.50
46816;DHT22;32787;53.316;8.670;2022-09-09T00:23:25;13.30;93.60
46816;DHT22;32787;53.316;8.670;2022-09-09T00:28:29;13.20;93.80
46816;DHT22;32787;53.316;8.670;2022-09-09T00:31:15;13.00;93.90
46816;DHT22;32787;53.316;8.670;2022-09-09T00:33:43;13.00;94.10
46816;DHT22;32787;53.316;8.670;2022-09-09T00:36:14;12.90;94.20
46816;DHT22;32787;53.316;8.670;2022-09-09T00:38:49;13.00;94.30
46816;DHT22;32787;53.316;8.670;2022-09-09T00:49:43;13.20;94.30
46816;DHT22;32787;53.316;8.670;2022-09-09T00:52:22;13.10;94.20
46816;DHT22;32787;53.316;8.670;2022-09-09T00:57:38;13.00;94.20
46816;DHT22;32787;53.316;8.670;2022-09-09T01:00:25;12.90;94.20
46816;DHT22;32787;53.316;8.670;2022-09-09T01:08:00;12.90;94.50
46816;DHT22;32787;53.316;8.670;2022-09-09T01:10:44;13.00;94.50
46816;DHT22;32787;53.316;8.670;2022-09-09T01:13:30;13.00;94.40
46816;DHT22;32787;53.316;8.670;2022-09-09T01:16:04;12.90;94.50
46816;DHT22;32787;53.316;8.670;2022-09-09T01:18:37;12.80;94.40
46816;DHT22;32787;53.316;8.670;2022-09-09T01:24:31;12.80;94.50
46816;DHT22;32787;53.316;8.670;2022-09-09T01:27:04;12.80;94.50
46816;DHT22;32787;53.316;8.670;2022-09-09T01:29:31;12.60;94.40
46816;DHT22;32787;53.316;8.670;2022-09-09T01:32:01;12.60;94.40
46816;DHT22;32787;53.316;8.670;2022-09-09T01:34:31;12.50;94.50
46816;DHT22;32787;53.316;8.670;2022-09-09T01:37:07;12.60;94.50
46816;DHT22;32787;53.316;8.670;2022-09-09T01:39:35;12.80;94.60
46816;DHT22;32787;53.316;8.670;2022-09-09T01:42:01;12.80;94.60
46816;DHT22;32787;53.316;8.670;2022-09-09T01:44:29;12.80;94.40
46816;DHT22;32787;53.316;8.670;2022-09-09T01:46:55;12.80;94.50
46816;DHT22;32787;53.316;8.670;2022-09-09T01:49:20;12.90;94.50
46816;DHT22;32787;53.316;8.670;2022-09-09T01:51:50;12.90;94.30
46816;DHT22;32787;53.316;8.670;2022-09-09T01:54:16;12.80;94.30
46816;DHT22;32787;53.316;8.670;2022-09-09T02:04:54;12.70;94.10
46816;DHT22;32787;53.316;8.670;2022-09-09T02:07:42;12.60;94.00
46816;DHT22;32787;53.316;8.670;2022-09-09T02:10:12;12.50;94.20
46816;DHT22;32787;53.316;8.670;2022-09-09T02:12:44;12.50;94.10
46816;DHT22;32787;53.316;8.670;2022-09-09T02:15:26;12.40;94.00
46816;DHT22;32787;53.316;8.670;2022-09-09T02:17:56;12.40;94.00
46816;DHT22;32787;53.316;8.670;2022-09-09T02:20:23;12.40;94.20
46816;DHT22;32787;53.316;8.670;2022-09-09T02:22:50;12.40;94.10
46816;DHT22;32787;53.316;8.670;2022-09-09T02:25:20;12.40;94.10
46816;DHT22;32787;53.316;8.670;2022-09-09T02:27:48;12.40;94.20
46816;DHT22;32787;53.316;8.670;2022-09-09T02:30:14;12.30;94.20
46816;DHT22;32787;53.316;8.670;2022-09-09T02:32:42;12.20;94.20
46816;DHT22;32787;53.316;8.670;2022-09-09T02:35:13;12.30;94.20
46816;DHT22;32787;53.316;8.670;2022-09-09T02:37:41;12.30;94.40
46816;DHT22;32787;53.316;8.670;2022-09-09T02:40:10;12.30;94.30
46816;DHT22;32787;53.316;8.670;2022-09-09T02:42:40;12.40;94.40
46816;DHT22;32787;53.316;8.670;2022-09-09T02:45:08;12.50;94.30
46816;DHT22;32787;53.316;8.670;2022-09-09T02:47:38;12.50;94.30
46816;DHT22;32787;53.316;8.670;2022-09-09T02:50:17;12.50;94.30
46816;DHT22;32787;53.316;8.670;2022-09-09T02:52:56;12.40;94.30
46816;DHT22;32787;53.316;8.670;2022-09-09T02:58:13;12.70;94.50
46816;DHT22;32787;53.316;8.670;2022-09-09T03:00:44;12.60;94.20
46816;DHT22;32787;53.316;8.670;2022-09-09T03:03:10;12.50;94.30
46816;DHT22;32787;53.316;8.670;2022-09-09T03:05:36;12.40;94.10
46816;DHT22;32787;53.316;8.670;2022-09-09T03:08:03;12.40;94.20
46816;DHT22;32787;53.316;8.670;2022-09-09T03:10:29;12.40;94.20
46816;DHT22;32787;53.316;8.670;2022-09-09T03:12:55;12.30;94.10
46816;DHT22;32787;53.316;8.670;2022-09-09T03:15:21;12.20;94.10
46816;DHT22;32787;53.316;8.670;2022-09-09T03:17:46;12.10;94.10
46816;DHT22;32787;53.316;8.670;2022-09-09T03:20:12;12.10;94.20
46816;DHT22;32787;53.316;8.670;2022-09-09T03:22:38;12.10;94.20
46816;DHT22;32787;53.316;8.670;2022-09-09T03:25:04;12.20;94.20
46816;DHT22;32787;53.316;8.670;2022-09-09T03:27:31;12.10;94.20
46816;DHT22;32787;53.316;8.670;2022-09-09T03:29:57;12.10;94.40
46816;DHT22;32787;53.316;8.670;2022-09-09T03:32:23;12.10;94.30
46816;DHT22;32787;53.316;8.670;2022-09-09T03:34:51;12.10;94.40
46816;DHT22;32787;53.316;8.670;2022-09-09T03:37:18;12.20;94.40
46816;DHT22;32787;53.316;8.670;2022-09-09T03:39:44;12.10;94.30
46816;DHT22;32787;53.316;8.670;2022-09-09T03:42:12;12.20;94.30
46816;DHT22;32787;53.316;8.670;2022-09-09T03:44:39;12.20;94.50
46816;DHT22;32787;53.316;8.670;2022-09-09T03:47:05;12.30;94.50
46816;DHT22;32787;53.316;8.670;2022-09-09T03:49:31;12.30;94.40
46816;DHT22;32787;53.316;8.670;2022-09-09T03:51:57;12.30;94.40
46816;DHT22;32787;53.316;8.670;2022-09-09T03:54:25;12.30;94.40
46816;DHT22;32787;53.316;8.670;2022-09-09T03:56:50;12.40;94.50
46816;DHT22;32787;53.316;8.670;2022-09-09T03:59:16;12.30;94.50
46816;DHT22;32787;53.316;8.670;2022-09-09T04:01:42;12.30;94.50
46816;DHT22;32787;53.316;8.670;2022-09-09T04:04:08;12.40;94.50
46816;DHT22;32787;53.316;8.670;2022-09-09T04:06:34;12.40;94.40
46816;DHT22;32787;53.316;8.670;2022-09-09T04:09:00;12.40;94.50
46816;DHT22;32787;53.316;8.670;2022-09-09T04:11:27;12.40;94.50
46816;DHT22;32787;53.316;8.670;2022-09-09T04:13:53;12.50;94.50
46816;DHT22;32787;53.316;8.670;2022-09-09T04:16:18;12.60;94.40
46816;DHT22;32787;53.316;8.670;2022-09-09T04:18:45;12.50;94.50
46816;DHT22;32787;53.316;8.670;2022-09-09T04:21:11;12.50;94.40
46816;DHT22;32787;53.316;8.670;2022-09-09T04:23:38;12.60;94.40
46816;DHT22;32787;53.316;8.670;2022-09-09T04:26:03;12.70;94.50
46816;DHT22;32787;53.316;8.670;2022-09-09T04:28:32;12.80;94.50
46816;DHT22;32787;53.316;8.670;2022-09-09T04:31:18;12.80;94.50
46816;DHT22;32787;53.316;8.670;2022-09-09T04:33:45;12.80;94.50
46816;DHT22;32787;53.316;8.670;2022-09-09T04:36:12;12.90;94.50
46816;DHT22;32787;53.316;8.670;2022-09-09T04:38:38;13.00;94.50
46816;DHT22;32787;53.316;8.670;2022-09-09T04:41:03;13.00;94.40
46816;DHT22;32787;53.316;8.670;2022-09-09T04:43:29;13.10;94.50
46816;DHT22;32787;53.316;8.670;2022-09-09T04:45:56;13.10;94.40
46816;DHT22;32787;53.316;8.670;2022-09-09T04:48:21;13.20;94.40
46816;DHT22;32787;53.316;8.670;2022-09-09T04:50:54;13.30;94.40
46816;DHT22;32787;53.316;8.670;2022-09-09T04:53:20;13.30;94.30
46816;DHT22;32787;53.316;8.670;2022-09-09T04:55:47;13.30;94.40
46816;DHT22;32787;53.316;8.670;2022-09-09T04:58:14;13.20;94.30
46816;DHT22;32787;53.316;8.670;2022-09-09T05:00:39;13.20;94.30
46816;DHT22;32787;53.316;8.670;2022-09-09T05:03:05;13.30;94.40
46816;DHT22;32787;53.316;8.670;2022-09-09T05:05:32;13.30;94.40
46816;DHT22;32787;53.316;8.670;2022-09-09T05:08:05;13.30;94.50
46816;DHT22;32787;53.316;8.670;2022-09-09T05:10:32;13.40;94.60
46816;DHT22;32787;53.316;8.670;2022-09-09T05:12:57;13.50;94.30
46816;DHT22;32787;53.316;8.670;2022-09-09T05:15:23;13.40;94.30
46816;DHT22;32787;53.316;8.670;2022-09-09T05:17:49;13.30;94.30
46816;DHT22;32787;53.316;8.670;2022-09-09T05:20:14;13.40;94.30
46816;DHT22;32787;53.316;8.670;2022-09-09T05:22:40;13.30;94.30
46816;DHT22;32787;53.316;8.670;2022-09-09T05:25:06;13.30;94.30
46816;DHT22;32787;53.316;8.670;2022-09-09T05:27:34;13.20;94.40
46816;DHT22;32787;53.316;8.670;2022-09-09T05:30:00;13.20;94.40
46816;DHT22;32787;53.316;8.670;2022-09-09T05:32:25;13.30;94.50
46816;DHT22;32787;53.316;8.670;2022-09-09T05:34:51;13.30;94.40
46816;DHT22;32787;53.316;8.670;2022-09-09T05:37:18;13.40;94.40
46816;DHT22;32787;53.316;8.670;2022-09-09T05:39:43;13.30;94.30
46816;DHT22;32787;53.316;8.670;2022-09-09T05:42:09;13.30;94.30
46816;DHT22;32787;53.316;8.670;2022-09-09T05:44:35;13.40;94.30
46816;DHT22;32787;53.316;8.670;2022-09-09T05:47:00;13.30;94.10
46816;DHT22;32787;53.316;8.670;2022-09-09T05:49:26;13.30;94.20
46816;DHT22;32787;53.316;8.670;2022-09-09T05:51:52;13.30;94.30
46816;DHT22;32787;53.316;8.670;2022-09-09T05:54:18;13.20;94.20
46816;DHT22;32787;53.316;8.670;2022-09-09T05:56:44;13.30;94.20
46816;DHT22;32787;53.316;8.670;2022-09-09T05:59:10;13.30;94.30
46816;DHT22;32787;53.316;8.670;2022-09-09T06:01:37;13.30;94.10
46816;DHT22;32787;53.316;8.670;2022-09-09T06:04:06;13.20;94.10
46816;DHT22;32787;53.316;8.670;2022-09-09T06:06:37;13.30;94.30
46816;DHT22;32787;53.316;8.670;2022-09-09T06:09:06;13.30;94.30
46816;DHT22;32787;53.316;8.670;2022-09-09T06:11:35;13.30;94.40
46816;DHT22;32787;53.316;8.670;2022-09-09T06:14:01;13.30;94.40
46816;DHT22;32787;53.316;8.670;2022-09-09T06:16:28;13.30;94.40
46816;DHT22;32787;53.316;8.670;2022-09-09T06:18:55;13.30;94.40
46816;DHT22;32787;53.316;8.670;2022-09-09T06:21:26;13.40;94.40
46816;DHT22;32787;53.316;8.670;2022-09-09T06:23:53;13.50;94.40
46816;DHT22;32787;53.316;8.670;2022-09-09T06:26:30;13.50;94.40
46816;DHT22;32787;53.316;8.670;2022-09-09T06:28:56;13.60;94.40
46816;DHT22;32787;53.316;8.670;2022-09-09T06:31:25;13.60;94.50
46816;DHT22;32787;53.316;8.670;2022-09-09T06:33:53;13.70;94.40
46816;DHT22;32787;53.316;8.670;2022-09-09T06:36:25;13.80;94.60
46816;DHT22;32787;53.316;8.670;2022-09-09T06:38:51;13.90;94.40
46816;DHT22;32787;53.316;8.670;2022-09-09T06:41:18;14.00;94.30
46816;DHT22;32787;53.316;8.670;2022-09-09T06:43:44;14.10;94.30
46816;DHT22;32787;53.316;8.670;2022-09-09T06:46:12;14.20;94.30
46816;DHT22;32787;53.316;8.670;2022-09-09T06:48:42;14.30;94.00
46816;DHT22;32787;53.316;8.670;2022-09-09T06:51:16;14.20;94.00
46816;DHT22;32787;53.316;8.670;2022-09-09T06:53:44;14.30;94.00
46816;DHT22;32787;53.316;8.670;2022-09-09T06:58:39;14.30;94.10
46816;DHT22;32787;53.316;8.670;2022-09-09T07:01:10;14.30;94.10
46816;DHT22;32787;53.316;8.670;2022-09-09T07:03:38;14.40;94.20
46816;DHT22;32787;53.316;8.670;2022-09-09T07:06:04;14.60;94.10
46816;DHT22;32787;53.316;8.670;2022-09-09T07:08:31;14.60;93.80
46816;DHT22;32787;53.316;8.670;2022-09-09T07:11:04;14.60;93.90
46816;DHT22;32787;53.316;8.670;2022-09-09T07:13:31;14.60;93.90
46816;DHT22;32787;53.316;8.670;2022-09-09T07:16:04;14.80;94.00
46816;DHT22;32787;53.316;8.670;2022-09-09T07:18:30;14.80;93.80
46816;DHT22;32787;53.316;8.670;2022-09-09T07:20:56;14.90;93.80
46816;DHT22;32787;53.316;8.670;2022-09-09T07:23:23;15.10;93.90
46816;DHT22;32787;53.316;8.670;2022-09-09T07:25:48;15.10;93.70
46816;DHT22;32787;53.316;8.670;2022-09-09T07:28:14;15.20;93.90
46816;DHT22;32787;53.316;8.670;2022-09-09T07:30:40;15.30;93.40
46816;DHT22;32787;53.316;8.670;2022-09-09T07:33:06;15.40;93.50
46816;DHT22;32787;53.316;8.670;2022-09-09T07:35:32;15.60;93.40
46816;DHT22;32787;53.316;8.670;2022-09-09T07:38:00;15.70;93.10
46816;DHT22;32787;53.316;8.670;2022-09-09T07:40:26;15.80;93.00
46816;DHT22;32787;53.316;8.670;2022-09-09T07:42:52;15.90;91.70
46816;DHT22;32787;53.316;8.670;2022-09-09T07:45:17;15.80;91.40
46816;DHT22;32787;53.316;8.670;2022-09-09T07:47:44;15.70;91.70
46816;DHT22;32787;53.316;8.670;2022-09-09T07:50:10;15.80;92.20
46816;DHT22;32787;53.316;8.670;2022-09-09T07:52:37;15.80;92.00
46816;DHT22;32787;53.316;8.670;2022-09-09T07:55:02;15.80;92.20
46816;DHT22;32787;53.316;8.670;2022-09-09T07:57:30;15.90;92.20
46816;DHT22;32787;53.316;8.670;2022-09-09T07:59:56;16.10;92.20
46816;DHT22;32787;53.316;8.670;2022-09-09T08:02:23;16.10;91.40
46816;DHT22;32787;53.316;8.670;2022-09-09T08:04:49;16.10;91.80
46816;DHT22;32787;53.316;8.670;2022-09-09T08:07:15;16.20;91.80
46816;DHT22;32787;53.316;8.670;2022-09-09T08:09:41;16.40;89.30
46816;DHT22;32787;53.316;8.670;2022-09-09T08:12:07;16.10;89.40
46816;DHT22;32787;53.316;8.670;2022-09-09T08:14:34;16.10;90.60
46816;DHT22;32787;53.316;8.670;2022-09-09T08:17:00;16.20;90.10
46816;DHT22;32787;53.316;8.670;2022-09-09T08:19:26;16.10;90.20
46816;DHT22;32787;53.316;8.670;2022-09-09T08:21:54;16.10;90.60
46816;DHT22;32787;53.316;8.670;2022-09-09T08:24:20;16.20;90.70
46816;DHT22;32787;53.316;8.670;2022-09-09T08:26:47;16.10;91.00
46816;DHT22;32787;53.316;8.670;2022-09-09T08:29:15;16.10;91.40
46816;DHT22;32787;53.316;8.670;2022-09-09T08:31:45;16.20;91.10
46816;DHT22;32787;53.316;8.670;2022-09-09T08:34:12;16.30;91.20
46816;DHT22;32787;53.316;8.670;2022-09-09T08:36:40;16.10;91.20
46816;DHT22;32787;53.316;8.670;2022-09-09T08:39:08;16.30;89.20
46816;DHT22;32787;53.316;8.670;2022-09-09T08:42:02;16.30;89.40
46816;DHT22;32787;53.316;8.670;2022-09-09T08:47:43;16.50;89.20
46816;DHT22;32787;53.316;8.670;2022-09-09T08:58:27;16.90;88.10
46816;DHT22;32787;53.316;8.670;2022-09-09T09:11:57;17.40;86.10
46816;DHT22;32787;53.316;8.670;2022-09-09T09:14:28;17.40;86.80
46816;DHT22;32787;53.316;8.670;2022-09-09T09:17:08;17.50;86.20
46816;DHT22;32787;53.316;8.670;2022-09-09T09:19:35;17.30;87.40
46816;DHT22;32787;53.316;8.670;2022-09-09T09:22:15;17.50;87.50
46816;DHT22;32787;53.316;8.670;2022-09-09T09:24:54;17.70;86.10
46816;DHT22;32787;53.316;8.670;2022-09-09T09:30:25;17.70;85.10
46816;DHT22;32787;53.316;8.670;2022-09-09T09:32:55;17.60;85.80
46816;DHT22;32787;53.316;8.670;2022-09-09T09:35:21;17.60;85.80
46816;DHT22;32787;53.316;8.670;2022-09-09T09:37:48;17.50;84.30
46816;DHT22;32787;53.316;8.670;2022-09-09T09:40:16;17.40;85.70
46816;DHT22;32787;53.316;8.670;2022-09-09T09:42:53;17.70;85.10
46816;DHT22;32787;53.316;8.670;2022-09-09T09:45:27;17.80;85.60
46816;DHT22;32787;53.316;8.670;2022-09-09T09:48:05;18.20;84.30
46816;DHT22;32787;53.316;8.670;2022-09-09T09:50:32;18.30;84.50
46816;DHT22;32787;53.316;8.670;2022-09-09T09:53:01;18.40;83.90
46816;DHT22;32787;53.316;8.670;2022-09-09T09:55:29;18.30;82.70
46816;DHT22;32787;53.316;8.670;2022-09-09T09:58:06;18.30;84.00
46816;DHT22;32787;53.316;8.670;2022-09-09T10:00:33;18.50;83.30
46816;DHT22;32787;53.316;8.670;2022-09-09T10:03:01;18.30;81.10
46816;DHT22;32787;53.316;8.670;2022-09-09T10:05:28;18.30;82.50
46816;DHT22;32787;53.316;8.670;2022-09-09T10:08:04;18.30;82.60
46816;DHT22;32787;53.316;8.670;2022-09-09T10:13:39;18.60;81.10
46816;DHT22;32787;53.316;8.670;2022-09-09T10:19:09;18.30;82.80
46816;DHT22;32787;53.316;8.670;2022-09-09T10:27:36;18.70;82.40
46816;DHT22;32787;53.316;8.670;2022-09-09T10:30:15;18.70;81.80
46816;DHT22;32787;53.316;8.670;2022-09-09T10:38:17;19.60;78.30
46816;DHT22;32787;53.316;8.670;2022-09-09T10:41:07;19.70;78.90
46816;DHT22;32787;53.316;8.670;2022-09-09T10:55:00;19.90;76.70
46816;DHT22;32787;53.316;8.670;2022-09-09T10:57:43;20.10;77.30
46816;DHT22;32787;53.316;8.670;2022-09-09T11:00:19;20.70;72.70
46816;DHT22;32787;53.316;8.670;2022-09-09T11:08:04;19.90;73.60
46816;DHT22;32787;53.316;8.670;2022-09-09T11:13:53;20.00;75.90
46816;DHT22;32787;53.316;8.670;2022-09-09T11:21:49;20.10;73.40
46816;DHT22;32787;53.316;8.670;2022-09-09T11:24:35;20.30;74.70
46816;DHT22;32787;53.316;8.670;2022-09-09T11:27:15;20.30;75.70
46816;DHT22;32787;53.316;8.670;2022-09-09T11:32:22;19.90;76.40
46816;DHT22;32787;53.316;8.670;2022-09-09T11:37:51;20.00;75.70
46816;DHT22;32787;53.316;8.670;2022-09-09T11:40:23;20.00;74.20
46816;DHT22;32787;53.316;8.670;2022-09-09T11:43:23;19.60;74.50
46816;DHT22;32787;53.316;8.670;2022-09-09T11:45:55;19.50;74.90
46816;DHT22;32787;53.316;8.670;2022-09-09T11:48:34;19.40;76.20
46816;DHT22;32787;53.316;8.670;2022-09-09T11:53:33;19.90;75.70
46816;DHT22;32787;53.316;8.670;2022-09-09T11:56:04;19.80;77.30
46816;DHT22;32787;53.316;8.670;2022-09-09T11:58:53;19.90;75.80
46816;DHT22;32787;53.316;8.670;2022-09-09T12:09:25;20.30;74.80
46816;DHT22;32787;53.316;8.670;2022-09-09T12:11:52;20.30;74.50
46816;DHT22;32787;53.316;8.670;2022-09-09T12:14:35;20.30;74.40
46816;DHT22;32787;53.316;8.670;2022-09-09T12:19:42;20.20;74.50
46816;DHT22;32787;53.316;8.670;2022-09-09T12:22:17;20.30;75.60
46816;DHT22;32787;53.316;8.670;2022-09-09T12:24:59;20.00;74.80
46816;DHT22;32787;53.316;8.670;2022-09-09T12:27:42;20.20;73.80
46816;DHT22;32787;53.316;8.670;2022-09-09T12:30:14;20.50;73.60
46816;DHT22;32787;53.316;8.670;2022-09-09T12:32:40;20.30;75.60
46816;DHT22;32787;53.316;8.670;2022-09-09T12:35:22;20.10;75.10
46816;DHT22;32787;53.316;8.670;2022-09-09T12:37:58;20.00;74.90
46816;DHT22;32787;53.316;8.670;2022-09-09T12:40:30;19.70;76.00
46816;DHT22;32787;53.316;8.670;2022-09-09T12:42:57;19.70;76.00
46816;DHT22;32787;53.316;8.670;2022-09-09T12:45:27;19.80;76.80
46816;DHT22;32787;53.316;8.670;2022-09-09T12:50:24;19.60;77.00
46816;DHT22;32787;53.316;8.670;2022-09-09T12:52:55;19.50;78.10
46816;DHT22;32787;53.316;8.670;2022-09-09T12:55:25;19.60;77.00
46816;DHT22;32787;53.316;8.670;2022-09-09T12:57:53;19.70;76.20
46816;DHT22;32787;53.316;8.670;2022-09-09T13:00:22;19.80;78.00
46816;DHT22;32787;53.316;8.670;2022-09-09T13:02:52;19.80;78.40
46816;DHT22;32787;53.316;8.670;2022-09-09T13:05:25;19.50;76.00
46816;DHT22;32787;53.316;8.670;2022-09-09T13:07:51;19.40;77.20
46816;DHT22;32787;53.316;8.670;2022-09-09T13:10:24;19.50;77.30
46816;DHT22;32787;53.316;8.670;2022-09-09T13:12:52;19.40;76.90
46816;DHT22;32787;53.316;8.670;2022-09-09T13:15:22;19.50;77.20
46816;DHT22;32787;53.316;8.670;2022-09-09T13:17:55;19.40;77.40
46816;DHT22;32787;53.316;8.670;2022-09-09T13:20:22;19.60;77.60
46816;DHT22;32787;53.316;8.670;2022-09-09T13:22:49;19.30;77.00
46816;DHT22;32787;53.316;8.670;2022-09-09T13:25:27;19.20;76.50
46816;DHT22;32787;53.316;8.670;2022-09-09T13:28:00;19.10;75.10
46816;DHT22;32787;53.316;8.670;2022-09-09T13:30:34;19.00;74.20
46816;DHT22;32787;53.316;8.670;2022-09-09T13:35:35;18.80;75.30
46816;DHT22;32787;53.316;8.670;2022-09-09T13:38:14;18.80;76.00
46816;DHT22;32787;53.316;8.670;2022-09-09T13:40:40;18.80;76.60
46816;DHT22;32787;53.316;8.670;2022-09-09T13:43:17;18.80;77.30
46816;DHT22;32787;53.316;8.670;2022-09-09T13:45:57;18.80;78.00
46816;DHT22;32787;53.316;8.670;2022-09-09T13:48:23;18.70;77.70
46816;DHT22;32787;53.316;8.670;2022-09-09T13:51:01;18.70;78.20
46816;DHT22;32787;53.316;8.670;2022-09-09T13:53:28;18.70;78.00
46816;DHT22;32787;53.316;8.670;2022-09-09T13:55:54;18.60;78.70
46816;DHT22;32787;53.316;8.670;2022-09-09T13:58:20;18.70;79.20
46816;DHT22;32787;53.316;8.670;2022-09-09T14:00:48;18.70;79.70
46816;DHT22;32787;53.316;8.670;2022-09-09T14:03:15;18.80;79.90
46816;DHT22;32787;53.316;8.670;2022-09-09T14:05:41;19.00;79.40
46816;DHT22;32787;53.316;8.670;2022-09-09T14:08:15;19.20;79.60
46816;DHT22;32787;53.316;8.670;2022-09-09T14:10:40;19.00;79.50
46816;DHT22;32787;53.316;8.670;2022-09-09T14:13:06;18.70;80.20
46816;DHT22;32787;53.316;8.670;2022-09-09T14:15:33;18.50;81.80
46816;DHT22;32787;53.316;8.670;2022-09-09T14:17:59;18.30;82.00
46816;DHT22;32787;53.316;8.670;2022-09-09T14:20:24;18.20;83.00
46816;DHT22;32787;53.316;8.670;2022-09-09T14:22:50;17.90;83.40
46816;DHT22;32787;53.316;8.670;2022-09-09T14:25:16;17.80;84.00
46816;DHT22;32787;53.316;8.670;2022-09-09T14:27:42;17.70;84.60
46816;DHT22;32787;53.316;8.670;2022-09-09T14:30:08;17.50;84.90
46816;DHT22;32787;53.316;8.670;2022-09-09T14:32:34;17.60;85.50
46816;DHT22;32787;53.316;8.670;2022-09-09T14:35:00;17.50;85.40
46816;DHT22;32787;53.316;8.670;2022-09-09T14:37:27;17.40;85.80
46816;DHT22;32787;53.316;8.670;2022-09-09T14:39:52;17.40;86.20
46816;DHT22;32787;53.316;8.670;2022-09-09T14:42:19;17.30;86.20
46816;DHT22;32787;53.316;8.670;2022-09-09T14:44:45;17.30;86.60
46816;DHT22;32787;53.316;8.670;2022-09-09T14:47:11;17.30;86.90
46816;DHT22;32787;53.316;8.670;2022-09-09T14:49:37;17.30;87.40
46816;DHT22;32787;53.316;8.670;2022-09-09T14:52:04;17.40;87.40
46816;DHT22;32787;53.316;8.670;2022-09-09T14:54:30;17.30;87.20
46816;DHT22;32787;53.316;8.670;2022-09-09T14:56:56;17.30;87.20
46816;DHT22;32787;53.316;8.670;2022-09-09T14:59:23;17.30;87.30
46816;DHT22;32787;53.316;8.670;2022-09-09T15:01:48;17.40;87.80
46816;DHT22;32787;53.316;8.670;2022-09-09T15:04:14;17.40;87.40
46816;DHT22;32787;53.316;8.670;2022-09-09T15:06:40;17.50;87.30
46816;DHT22;32787;53.316;8.670;2022-09-09T15:09:08;17.40;87.10
46816;DHT22;32787;53.316;8.670;2022-09-09T15:11:36;17.40;87.40
46816;DHT22;32787;53.316;8.670;2022-09-09T15:14:06;17.50;87.80
46816;DHT22;32787;53.316;8.670;2022-09-09T15:16:33;17.50;87.60
46816;DHT22;32787;53.316;8.670;2022-09-09T15:19:00;17.50;87.20
46816;DHT22;32787;53.316;8.670;2022-09-09T15:21:29;17.40;87.60
46816;DHT22;32787;53.316;8.670;2022-09-09T15:23:56;17.30;87.60
46816;DHT22;32787;53.316;8.670;2022-09-09T15:26:22;17.30;87.80
46816;DHT22;32787;53.316;8.670;2022-09-09T15:28:48;17.30;87.90
46816;DHT22;32787;53.316;8.670;2022-09-09T15:31:17;17.30;87.80
46816;DHT22;32787;53.316;8.670;2022-09-09T15:33:54;17.30;88.10
46816;DHT22;32787;53.316;8.670;2022-09-09T15:36:36;17.30;88.40
46816;DHT22;32787;53.316;8.670;2022-09-09T15:39:04;17.30;88.60
46816;DHT22;32787;53.316;8.670;2022-09-09T15:41:31;17.30;88.60
46816;DHT22;32787;53.316;8.670;2022-09-09T15:43:58;17.30;88.70
46816;DHT22;32787;53.316;8.670;2022-09-09T15:48:58;17.40;88.90
46816;DHT22;32787;53.316;8.670;2022-09-09T15:51:27;17.30;88.80
46816;DHT22;32787;53.316;8.670;2022-09-09T15:53:55;17.30;88.50
46816;DHT22;32787;53.316;8.670;2022-09-09T15:56:21;17.30;88.70
46816;DHT22;32787;53.316;8.670;2022-09-09T15:58:47;17.30;88.60
46816;DHT22;32787;53.316;8.670;2022-09-09T16:01:13;17.30;88.90
46816;DHT22;32787;53.316;8.670;2022-09-09T16:03:42;17.30;88.80
46816;DHT22;32787;53.316;8.670;2022-09-09T16:06:09;17.30;89.00
46816;DHT22;32787;53.316;8.670;2022-09-09T16:08:35;17.30;88.60
46816;DHT22;32787;53.316;8.670;2022-09-09T16:11:09;17.30;88.90
46816;DHT22;32787;53.316;8.670;2022-09-09T16:13:36;17.30;88.70
46816;DHT22;32787;53.316;8.670;2022-09-09T16:16:03;17.30;88.60
46816;DHT22;32787;53.316;8.670;2022-09-09T16:18:44;17.30;88.10
46816;DHT22;32787;53.316;8.670;2022-09-09T16:21:31;17.40;88.40
46816;DHT22;32787;53.316;8.670;2022-09-09T16:23:59;17.40;87.90
46816;DHT22;32787;53.316;8.670;2022-09-09T16:26:25;17.50;87.70
46816;DHT22;32787;53.316;8.670;2022-09-09T16:28:50;17.60;87.70
46816;DHT22;32787;53.316;8.670;2022-09-09T16:31:18;17.50;87.20
46816;DHT22;32787;53.316;8.670;2022-09-09T16:33:45;17.50;87.40
46816;DHT22;32787;53.316;8.670;2022-09-09T16:36:17;17.50;87.60
46816;DHT22;32787;53.316;8.670;2022-09-09T16:38:43;17.30;87.50
46816;DHT22;32787;53.316;8.670;2022-09-09T16:41:10;17.30;87.90
46816;DHT22;32787;53.316;8.670;2022-09-09T16:43:36;17.30;87.70
46816;DHT22;32787;53.316;8.670;2022-09-09T16:46:03;17.10;88.10
46816;DHT22;32787;53.316;8.670;2022-09-09T16:48:33;17.10;88.50
46816;DHT22;32787;53.316;8.670;2022-09-09T16:51:07;17.10;88.70
46816;DHT22;32787;53.316;8.670;2022-09-09T16:53:33;17.00;88.60
46816;DHT22;32787;53.316;8.670;2022-09-09T16:56:11;17.00;88.80
46816;DHT22;32787;53.316;8.670;2022-09-09T16:58:37;16.90;88.70
46816;DHT22;32787;53.316;8.670;2022-09-09T17:01:04;16.90;89.20
46816;DHT22;32787;53.316;8.670;2022-09-09T17:03:31;16.90;88.90
46816;DHT22;32787;53.316;8.670;2022-09-09T17:05:57;16.90;88.80
46816;DHT22;32787;53.316;8.670;2022-09-09T17:08:24;16.80;88.80
46816;DHT22;32787;53.316;8.670;2022-09-09T17:10:49;16.70;88.70
46816;DHT22;32787;53.316;8.670;2022-09-09T17:13:16;16.80;89.00
46816;DHT22;32787;53.316;8.670;2022-09-09T17:15:45;16.80;89.10
46816;DHT22;32787;53.316;8.670;2022-09-09T17:18:11;16.90;88.80
46816;DHT22;32787;53.316;8.670;2022-09-09T17:20:39;16.80;88.70
46816;DHT22;32787;53.316;8.670;2022-09-09T17:23:09;16.80;89.00
46816;DHT22;32787;53.316;8.670;2022-09-09T17:25:35;16.70;88.90
46816;DHT22;32787;53.316;8.670;2022-09-09T17:28:01;16.70;89.10
46816;DHT22;32787;53.316;8.670;2022-09-09T17:30:30;16.80;88.80
46816;DHT22;32787;53.316;8.670;2022-09-09T17:32:56;16.70;89.00
46816;DHT22;32787;53.316;8.670;2022-09-09T17:35:22;16.60;89.20
46816;DHT22;32787;53.316;8.670;2022-09-09T17:37:48;16.80;89.10
46816;DHT22;32787;53.316;8.670;2022-09-09T17:40:13;16.80;88.60
46816;DHT22;32787;53.316;8.670;2022-09-09T17:42:39;16.70;89.20
46816;DHT22;32787;53.316;8.670;2022-09-09T17:45:06;16.60;89.20
46816;DHT22;32787;53.316;8.670;2022-09-09T17:47:32;16.60;89.60
46816;DHT22;32787;53.316;8.670;2022-09-09T17:49:57;16.40;89.90
46816;DHT22;32787;53.316;8.670;2022-09-09T17:52:24;16.30;90.30
46816;DHT22;32787;53.316;8.670;2022-09-09T17:54:49;16.20;90.80
46816;DHT22;32787;53.316;8.670;2022-09-09T17:57:16;16.10;91.10
46816;DHT22;32787;53.316;8.670;2022-09-09T17:59:44;16.00;91.40
46816;DHT22;32787;53.316;8.670;2022-09-09T18:02:11;16.00;91.50
46816;DHT22;32787;53.316;8.670;2022-09-09T18:04:37;15.80;91.70
46816;DHT22;32787;53.316;8.670;2022-09-09T18:07:03;15.80;91.90